createdAt,value
2019-04-29T00:00:16.984Z,99180.25
2019-04-29T00:02:43.167Z,99175.91
2019-04-29T00:05:09.624Z,99173.05
2019-04-29T00:07:36.226Z,99178.55
2019-04-29T00:10:06.695Z,99176.75
2019-04-29T00:12:32.867Z,99175.80
2019-04-29T00:15:00.954Z,99166.48
2019-04-29T00:17:29.156Z,99171.70
2019-04-29T00:19:57.214Z,99167.52
2019-04-29T00:22:23.499Z,99169.52
2019-04-29T00:24:49.846Z,99165.12
2019-04-29T00:27:16.044Z,99167.44
2019-04-29T00:29:42.241Z,99163.36
2019-04-29T00:32:09.494Z,99165.06
2019-04-29T00:34:35.666Z,99162.31
2019-04-29T00:37:09.456Z,99156.73
2019-04-29T00:39:54.089Z,99156.25
2019-04-29T00:42:22.197Z,99161.72
2019-04-29T00:44:48.547Z,99166.22
2019-04-29T00:47:14.820Z,99164.58
2019-04-29T00:49:40.999Z,99167.31
2019-04-29T00:52:07.167Z,99171.97
2019-04-29T00:54:37.884Z,99170.34
2019-04-29T00:57:04.193Z,99170.87
2019-04-29T00:59:30.361Z,99168.38
2019-04-29T01:01:56.634Z,99180.20
2019-04-29T01:04:22.819Z,99182.95
2019-04-29T01:06:48.971Z,99179.66
2019-04-29T01:09:17.145Z,99177.71
2019-04-29T01:11:43.397Z,99175.52
2019-04-29T01:14:09.564Z,99170.56
2019-04-29T01:16:35.738Z,99167.27
2019-04-29T01:19:03.900Z,99172.22
2019-04-29T01:21:30.002Z,99169.22
2019-04-29T01:23:56.169Z,99176.36
2019-04-29T01:26:39.090Z,99183.22
2019-04-29T01:29:07.143Z,99181.85
2019-04-29T01:31:33.403Z,99177.18
2019-04-29T01:34:01.518Z,99173.05
2019-04-29T01:36:29.564Z,99177.73
2019-04-29T01:38:57.645Z,99175.81
2019-04-29T01:41:40.858Z,99170.89
2019-04-29T01:44:08.720Z,99169.52
2019-04-29T01:46:34.973Z,99168.14
2019-04-29T01:49:02.383Z,99170.06
2019-04-29T01:51:28.559Z,99163.73
2019-04-29T01:53:54.813Z,99166.47
2019-04-29T01:56:21.027Z,99163.95
2019-04-29T01:58:47.185Z,99161.75
2019-04-29T02:01:13.449Z,99159.91
2019-04-29T02:03:39.663Z,99160.72
2019-04-29T02:06:05.814Z,99153.84
2019-04-29T02:08:32.094Z,99155.53
2019-04-29T02:10:58.424Z,99150.88
2019-04-29T02:13:24.592Z,99150.05
2019-04-29T02:15:50.766Z,99157.99
2019-04-29T02:18:17.055Z,99155.53
2019-04-29T02:20:43.217Z,99152.52
2019-04-29T02:23:11.294Z,99147.56
2019-04-29T02:25:45.426Z,99149.74
2019-04-29T02:28:11.580Z,99145.09
2019-04-29T02:30:44.480Z,99150.59
2019-04-29T02:33:10.671Z,99147.77
2019-04-29T02:35:36.823Z,99147.58
2019-04-29T02:38:04.900Z,99145.94
2019-04-29T02:40:33.016Z,99144.02
2019-04-29T02:43:01.166Z,99144.80
2019-04-29T02:45:29.227Z,99141.77
2019-04-29T02:47:55.451Z,99144.78
2019-04-29T02:50:21.724Z,99146.20
2019-04-29T02:52:47.873Z,99146.95
2019-04-29T02:55:16.080Z,99146.70
2019-04-29T02:57:44.145Z,99152.47
2019-04-29T03:00:18.059Z,99159.89
2019-04-29T03:02:46.168Z,99153.80
2019-04-29T03:05:14.236Z,99158.78
2019-04-29T03:07:40.436Z,99148.62
2019-04-29T03:10:06.991Z,99153.50
2019-04-29T03:12:33.863Z,99154.09
2019-04-29T03:15:00.067Z,99156.03
2019-04-29T03:17:27.728Z,99150.04
2019-04-29T03:20:07.699Z,99155.53
2019-04-29T03:22:34.604Z,99150.58
2019-04-29T03:25:00.773Z,99150.59
2019-04-29T03:27:26.983Z,99155.79
2019-04-29T03:29:53.144Z,99158.80
2019-04-29T03:32:19.324Z,99156.90
2019-04-29T03:34:45.517Z,99167.27
2019-04-29T03:37:11.681Z,99165.41
2019-04-29T03:39:37.845Z,99162.67
2019-04-29T03:42:07.204Z,99168.96
2019-04-29T03:44:32.121Z,99170.33
2019-04-29T03:46:58.295Z,99163.19
2019-04-29T03:49:24.506Z,99161.02
2019-04-29T03:51:50.678Z,99161.56
2019-04-29T03:54:16.876Z,99167.05
2019-04-29T03:56:44.262Z,99171.96
2019-04-29T03:59:10.517Z,99171.42
2019-04-29T04:01:38.615Z,99168.65
2019-04-29T04:04:06.770Z,99163.61
2019-04-29T04:06:40.388Z,99167.23
2019-04-29T04:09:20.118Z,99174.97
2019-04-29T04:11:46.283Z,99170.81
2019-04-29T04:14:12.446Z,99173.91
2019-04-29T04:16:57.107Z,99168.08
2019-04-29T04:19:24.741Z,99161.59
2019-04-29T04:21:50.891Z,99164.98
2019-04-29T04:24:17.081Z,99171.00
2019-04-29T04:26:43.284Z,99163.58
2019-04-29T04:29:09.450Z,99162.18
2019-04-29T04:31:35.635Z,99162.52
2019-04-29T04:34:01.814Z,99158.22
2019-04-29T04:36:27.962Z,99164.99
2019-04-29T04:38:54.166Z,99164.50
2019-04-29T04:41:20.343Z,99168.52
2019-04-29T04:43:46.487Z,99177.78
2019-04-29T04:46:12.803Z,99184.81
2019-04-29T04:48:38.979Z,99195.05
2019-04-29T04:51:05.136Z,99198.30
2019-04-29T04:53:31.354Z,99195.77
2019-04-29T04:55:59.309Z,99191.39
2019-04-29T04:58:25.466Z,99185.86
2019-04-29T05:00:51.779Z,99185.19
2019-04-29T05:03:17.956Z,99191.21
2019-04-29T05:05:44.119Z,99185.39
2019-04-29T05:08:10.317Z,99185.31
2019-04-29T05:10:36.489Z,99188.56
2019-04-29T05:13:02.644Z,99186.79
2019-04-29T05:15:28.867Z,99190.64
2019-04-29T05:17:55.052Z,99191.98
2019-04-29T05:20:21.200Z,99190.08
2019-04-29T05:22:59.023Z,99196.34
2019-04-29T05:25:26.414Z,99200.52
2019-04-29T05:27:52.592Z,99194.92
2019-04-29T05:30:18.790Z,99205.81
2019-04-29T05:32:44.989Z,99204.05
2019-04-29T05:35:13.013Z,99204.42
2019-04-29T05:37:46.658Z,99204.91
2019-04-29T05:40:14.739Z,99205.27
2019-04-29T05:42:40.909Z,99206.75
2019-04-29T05:45:18.120Z,99199.46
2019-04-29T05:47:52.258Z,99194.44
2019-04-29T05:50:27.781Z,99203.02
2019-04-29T05:52:58.360Z,99203.38
2019-04-29T05:55:24.538Z,99190.83
2019-04-29T05:57:50.742Z,99194.59
2019-04-29T06:00:18.887Z,99188.34
2019-04-29T06:02:46.011Z,99192.41
2019-04-29T06:05:12.197Z,99186.13
2019-04-29T06:07:38.352Z,99179.87
2019-04-29T06:10:05.436Z,99172.10
2019-04-29T06:12:31.626Z,99171.00
2019-04-29T06:14:57.825Z,99170.31
2019-04-29T06:17:24.004Z,99164.53
2019-04-29T06:19:50.295Z,99165.84
2019-04-29T06:22:16.455Z,99165.91
2019-04-29T06:24:42.751Z,99160.08
2019-04-29T06:27:08.960Z,99158.73
2019-04-29T06:29:35.123Z,99156.79
2019-04-29T06:32:01.306Z,99153.25
2019-04-29T06:34:27.900Z,99146.22
2019-04-29T06:36:54.065Z,99147.43
2019-04-29T06:39:20.250Z,99144.67
2019-04-29T06:41:46.977Z,99144.88
2019-04-29T06:44:16.663Z,99145.34
2019-04-29T06:46:41.363Z,99143.95
2019-04-29T06:49:10.309Z,99144.81
2019-04-29T06:51:35.637Z,99150.44
2019-04-29T06:54:01.807Z,99147.73
2019-04-29T06:56:28.031Z,99151.89
2019-04-29T06:58:54.180Z,99148.73
2019-04-29T07:01:20.340Z,99146.75
2019-04-29T07:03:46.556Z,99138.14
2019-04-29T07:06:12.735Z,99140.10
2019-04-29T07:08:38.896Z,99142.11
2019-04-29T07:11:05.181Z,99139.20
2019-04-29T07:13:31.351Z,99145.58
2019-04-29T07:15:57.603Z,99141.98
2019-04-29T07:18:23.828Z,99142.84
2019-04-29T07:20:49.988Z,99134.45
2019-04-29T07:23:16.266Z,99136.73
2019-04-29T07:25:42.471Z,99132.80
2019-04-29T07:28:08.624Z,99136.12
2019-04-29T07:30:39.255Z,99138.55
2019-04-29T07:33:05.548Z,99139.41
2019-04-29T07:35:31.270Z,99134.36
2019-04-29T07:37:57.457Z,99135.88
2019-04-29T07:40:23.664Z,99137.29
2019-04-29T07:42:49.907Z,99137.34
2019-04-29T07:45:18.183Z,99128.06
2019-04-29T07:47:56.355Z,99131.69
2019-04-29T07:50:14.614Z,99129.97
2019-04-29T07:52:40.936Z,99139.66
2019-04-29T07:55:07.952Z,99142.52
2019-04-29T07:57:34.107Z,99136.41
2019-04-29T08:00:00.266Z,99132.14
2019-04-29T08:02:26.590Z,99130.50
2019-04-29T08:04:52.868Z,99117.27
2019-04-29T08:07:19.120Z,99121.13
2019-04-29T08:09:46.339Z,99120.31
2019-04-29T08:12:12.900Z,99129.83
2019-04-29T08:14:39.168Z,99129.45
2019-04-29T08:17:05.495Z,99131.59
2019-04-29T08:19:31.869Z,99123.14
2019-04-29T08:21:58.036Z,99128.06
2019-04-29T08:24:24.247Z,99124.52
2019-04-29T08:26:50.428Z,99120.96
2019-04-29T08:29:16.586Z,99121.28
2019-04-29T08:31:42.795Z,99117.34
2019-04-29T08:34:08.972Z,99116.87
2019-04-29T08:36:35.228Z,99113.55
2019-04-29T08:39:08.214Z,99114.84
2019-04-29T08:41:31.827Z,99113.62
2019-04-29T08:44:16.446Z,99110.89
2019-04-29T08:46:38.878Z,99114.17
2019-04-29T08:49:06.156Z,99105.98
2019-04-29T08:51:33.271Z,99111.39
2019-04-29T08:53:59.424Z,99099.61
2019-04-29T08:56:25.718Z,99106.12
2019-04-29T08:58:51.899Z,99093.77
2019-04-29T09:01:18.061Z,99094.55
2019-04-29T09:03:44.337Z,99084.52
2019-04-29T09:06:10.656Z,99069.73
2019-04-29T09:08:36.840Z,99074.47
2019-04-29T09:11:03.215Z,99072.58
2019-04-29T09:13:29.442Z,99061.06
2019-04-29T09:15:55.595Z,99052.36
2019-04-29T09:18:21.750Z,99038.15
2019-04-29T09:20:47.977Z,99032.70
2019-04-29T09:23:16.059Z,99028.03
2019-04-29T09:26:02.721Z,99026.30
2019-04-29T09:28:29.885Z,99024.03
2019-04-29T09:30:56.323Z,99029.19
2019-04-29T09:33:22.762Z,99027.42
2019-04-29T09:35:48.942Z,99013.50
2019-04-29T09:38:15.133Z,99010.19
2019-04-29T09:40:59.624Z,99010.00
2019-04-29T09:43:34.035Z,99003.33
2019-04-29T09:46:02.155Z,99000.79
2019-04-29T09:48:28.319Z,98989.80
2019-04-29T09:50:54.503Z,98983.52
2019-04-29T09:53:20.811Z,98993.77
2019-04-29T09:55:47.072Z,98981.96
2019-04-29T09:58:13.256Z,98974.84
2019-04-29T10:03:30.240Z,98961.36
2019-04-29T10:05:58.335Z,98959.63
2019-04-29T10:08:24.519Z,98963.83
2019-04-29T10:10:50.667Z,98954.95
2019-04-29T10:13:16.861Z,98948.38
2019-04-29T10:16:02.066Z,98951.34
2019-04-29T10:18:46.650Z,98955.02
2019-04-29T10:21:16.529Z,98948.04
2019-04-29T10:23:42.865Z,98951.27
2019-04-29T10:26:09.177Z,98952.61
2019-04-29T10:28:37.240Z,98950.22
2019-04-29T10:31:04.218Z,98940.07
2019-04-29T10:33:30.423Z,98936.47
2019-04-29T10:35:56.679Z,98934.80
2019-04-29T10:38:22.857Z,98932.55
2019-04-29T10:43:43.828Z,98927.66
2019-04-29T10:46:20.956Z,98930.03
2019-04-29T10:48:52.254Z,98922.94
2019-04-29T10:51:18.710Z,98916.73
2019-04-29T10:53:46.612Z,98914.52
2019-04-29T10:56:13.799Z,98917.58
2019-04-29T10:58:39.956Z,98913.14
2019-04-29T11:01:42.220Z,98909.71
2019-04-29T11:04:08.858Z,98892.59
2019-04-29T11:06:35.765Z,98893.37
2019-04-29T11:11:44.204Z,98888.91
2019-04-29T11:14:10.531Z,98886.01
2019-04-29T11:16:46.066Z,98870.49
2019-04-29T11:19:05.780Z,98863.53
2019-04-29T11:21:32.493Z,98864.35
2019-04-29T11:24:12.712Z,98853.74
2019-04-29T11:26:49.587Z,98858.99
2019-04-29T11:29:15.916Z,98859.34
2019-04-29T11:31:42.173Z,98850.89
2019-04-29T11:34:17.972Z,98857.77
2019-04-29T11:36:44.278Z,98849.31
2019-04-29T11:39:15.541Z,98847.27
2019-04-29T11:41:41.802Z,98845.66
2019-04-29T11:44:08.026Z,98836.59
2019-04-29T11:46:34.306Z,98830.62
2019-04-29T11:49:02.373Z,98832.39
2019-04-29T11:51:54.213Z,98832.03
2019-04-29T11:54:08.138Z,98824.36
2019-04-29T11:56:35.865Z,98819.50
2019-04-29T11:59:07.703Z,98816.28
2019-04-29T12:01:53.475Z,98806.38
2019-04-29T12:04:28.633Z,98795.73
2019-04-29T12:06:56.254Z,98794.77
2019-04-29T12:09:25.488Z,98795.10
2019-04-29T12:11:51.743Z,98787.98
2019-04-29T12:17:28.249Z,98778.66
2019-04-29T12:20:02.375Z,98780.78
2019-04-29T12:22:30.997Z,98782.77
2019-04-29T12:24:57.514Z,98782.77
2019-04-29T12:27:23.690Z,98781.36
2019-04-29T12:29:54.437Z,98769.55
2019-04-29T12:35:16.778Z,98762.08
2019-04-29T12:38:05.896Z,98747.59
2019-04-29T12:40:33.724Z,98751.63
2019-04-29T12:43:04.573Z,98751.63
2019-04-29T12:45:32.661Z,98755.25
2019-04-29T12:47:58.933Z,98746.09
2019-04-29T12:50:25.223Z,98742.78
2019-04-29T12:52:51.424Z,98742.92
2019-04-29T12:58:11.210Z,98734.20
2019-04-29T13:00:47.493Z,98730.45
2019-04-29T13:03:08.345Z,98722.27
2019-04-29T13:05:42.266Z,98730.58
2019-04-29T13:08:16.388Z,98720.04
2019-04-29T13:10:44.477Z,98712.70
2019-04-29T13:13:10.756Z,98701.47
2019-04-29T13:15:56.104Z,98698.33
2019-04-29T13:18:29.712Z,98695.18
2019-04-29T13:21:09.203Z,98688.66
2019-04-29T13:23:34.828Z,98692.59
2019-04-29T13:25:56.119Z,98692.59
2019-04-29T13:28:29.887Z,98690.80
2019-04-29T13:30:51.545Z,98687.40
2019-04-29T13:33:18.644Z,98687.40
2019-04-29T13:35:48.465Z,98688.58
2019-04-29T13:38:14.839Z,98694.24
2019-04-29T13:40:42.937Z,98689.50
2019-04-29T13:43:09.102Z,98677.03
2019-04-29T13:45:37.209Z,98675.52
2019-04-29T13:53:46.203Z,98677.47
2019-04-29T13:56:32.210Z,98673.73
2019-04-29T13:58:40.610Z,98666.29
2019-04-29T14:01:22.057Z,98663.17
2019-04-29T14:03:56.354Z,98657.80
2019-04-29T14:06:22.624Z,98659.52
2019-04-29T14:08:48.792Z,98659.97
2019-04-29T14:11:15.128Z,98663.22
2019-04-29T14:13:43.253Z,98651.75
2019-04-29T14:16:12.035Z,98651.75
2019-04-29T14:18:37.571Z,98647.94
2019-04-29T14:21:03.842Z,98649.28
2019-04-29T14:23:30.015Z,98649.28
2019-04-29T14:25:56.290Z,98648.67
2019-04-29T14:28:22.538Z,98649.60
2019-04-29T14:30:49.227Z,98652.95
2019-04-29T14:33:19.174Z,98653.72
2019-04-29T14:35:50.117Z,98647.95
2019-04-29T14:38:18.104Z,98643.47
2019-04-29T14:40:44.309Z,98643.47
2019-04-29T14:43:31.630Z,98655.94
2019-04-29T14:45:58.832Z,98651.30
2019-04-29T14:48:26.998Z,98651.72
2019-04-29T14:50:56.111Z,98648.27
2019-04-29T14:53:26.208Z,98653.56
2019-04-29T14:55:52.365Z,98657.20
2019-04-29T14:58:18.547Z,98654.97
2019-04-29T15:03:29.230Z,98655.86
2019-04-29T15:05:55.558Z,98644.44
2019-04-29T15:08:21.752Z,98646.47
2019-04-29T15:10:49.860Z,98643.64
2019-04-29T15:13:21.388Z,98642.80
2019-04-29T15:16:04.786Z,98640.08
2019-04-29T15:21:32.022Z,98648.58
2019-04-29T15:23:52.632Z,98655.80
2019-04-29T15:26:20.435Z,98648.94
2019-04-29T15:28:52.471Z,98647.99
2019-04-29T15:31:22.266Z,98647.75
2019-04-29T15:33:49.085Z,98655.84
2019-04-29T15:36:15.287Z,98659.03
2019-04-29T15:38:41.581Z,98658.73
2019-04-29T15:41:07.868Z,98663.68
2019-04-29T15:43:46.501Z,98661.88
2019-04-29T15:46:02.164Z,98660.39
2019-04-29T15:48:28.312Z,98661.44
2019-04-29T15:50:54.469Z,98656.38
2019-04-29T15:53:20.685Z,98652.69
2019-04-29T15:55:46.837Z,98651.87
2019-04-29T15:58:13.021Z,98651.83
2019-04-29T16:00:40.429Z,98662.25
2019-04-29T16:03:07.204Z,98664.88
2019-04-29T16:05:56.142Z,98652.86
2019-04-29T16:08:10.816Z,98648.92
2019-04-29T16:10:57.852Z,98645.27
2019-04-29T16:13:27.764Z,98647.45
2019-04-29T16:15:51.698Z,98651.01
2019-04-29T16:18:17.894Z,98647.64
2019-04-29T16:20:44.058Z,98654.02
2019-04-29T16:23:10.275Z,98650.18
2019-04-29T16:25:40.523Z,98650.38
2019-04-29T16:28:04.699Z,98651.39
2019-04-29T16:30:32.008Z,98655.69
2019-04-29T16:33:01.140Z,98658.17
2019-04-29T16:35:34.481Z,98656.05
2019-04-29T16:37:55.385Z,98654.12
2019-04-29T16:40:22.787Z,98653.91
2019-04-29T16:42:52.709Z,98645.77
2019-04-29T16:45:20.867Z,98644.12
2019-04-29T16:47:48.657Z,98642.77
2019-04-29T16:50:14.955Z,98641.50
2019-04-29T16:52:44.551Z,98653.64
2019-04-29T16:55:09.551Z,98648.33
2019-04-29T16:57:35.731Z,98650.77
2019-04-29T17:02:33.700Z,98650.17
2019-04-29T17:05:02.749Z,98655.86
2019-04-29T17:07:29.232Z,98662.55
2019-04-29T17:12:40.540Z,98654.66
2019-04-29T17:15:23.642Z,98659.11
2019-04-29T17:17:35.081Z,98661.88
2019-04-29T17:20:01.963Z,98658.86
2019-04-29T17:22:28.143Z,98658.78
2019-04-29T17:24:54.300Z,98665.17
2019-04-29T17:27:22.375Z,98664.08
2019-04-29T17:30:03.487Z,98664.73
2019-04-29T17:32:43.246Z,98662.20
2019-04-29T17:35:05.075Z,98669.75
2019-04-29T17:35:17.103Z,98654.72
2019-04-29T17:37:32.216Z,98676.41
2019-04-29T17:39:58.555Z,98679.72
2019-04-29T17:42:26.683Z,98684.58
2019-04-29T17:44:52.861Z,98685.08
2019-04-29T17:47:37.841Z,98692.05
2019-04-29T17:50:29.418Z,98694.54
2019-04-29T17:52:47.222Z,98696.63
2019-04-29T17:55:15.607Z,98699.34
2019-04-29T17:57:43.686Z,98694.62
2019-04-29T18:00:21.636Z,98697.10
2019-04-29T18:02:57.284Z,98699.74
2019-04-29T18:05:52.223Z,98703.56
2019-04-29T18:08:05.247Z,98701.50
2019-04-29T18:10:40.336Z,98698.30
2019-04-29T18:13:06.735Z,98710.05
2019-04-29T18:15:46.945Z,98700.51
2019-04-29T18:18:07.271Z,98706.97
2019-04-29T18:20:36.506Z,98710.03
2019-04-29T18:23:11.063Z,98713.90
2019-04-29T18:28:26.412Z,98705.02
2019-04-29T18:30:54.465Z,98706.47
2019-04-29T18:33:23.409Z,98706.07
2019-04-29T18:35:48.983Z,98706.33
2019-04-29T18:38:15.152Z,98707.73
2019-04-29T18:40:42.257Z,98707.92
2019-04-29T18:43:09.430Z,98710.66
2019-04-29T18:45:36.809Z,98707.45
2019-04-29T18:48:09.038Z,98702.97
2019-04-29T18:50:34.227Z,98703.63
2019-04-29T18:53:01.447Z,98709.34
2019-04-29T18:55:28.186Z,98713.33
2019-04-29T18:57:58.260Z,98710.48
2019-04-29T19:00:22.723Z,98707.30
2019-04-29T19:02:56.946Z,98715.52
2019-04-29T19:05:18.978Z,98710.38
2019-04-29T19:07:54.878Z,98717.17
2019-04-29T19:10:17.893Z,98715.06
2019-04-29T19:12:42.166Z,98712.59
2019-04-29T19:15:11.774Z,98713.25
2019-04-29T19:17:40.008Z,98705.41
2019-04-29T19:20:08.655Z,98697.77
2019-04-29T19:22:36.028Z,98705.80
2019-04-29T19:25:03.044Z,98708.55
2019-04-29T19:27:30.534Z,98706.23
2019-04-29T19:29:59.151Z,98702.88
2019-04-29T19:32:25.407Z,98696.30
2019-04-29T19:34:54.932Z,98696.64
2019-04-29T19:37:21.684Z,98703.28
2019-04-29T19:39:47.839Z,98708.98
2019-04-29T19:42:15.653Z,98712.03
2019-04-29T19:44:42.223Z,98716.30
2019-04-29T19:47:10.906Z,98708.64
2019-04-29T19:49:40.205Z,98707.98
2019-04-29T19:52:04.552Z,98702.91
2019-04-29T19:54:30.701Z,98700.12
2019-04-29T19:57:03.255Z,98699.45
2019-04-29T19:59:26.122Z,98703.96
2019-04-29T20:02:01.770Z,98701.69
2019-04-29T20:04:39.510Z,98704.41
2019-04-29T20:07:09.603Z,98716.78
2019-04-29T20:09:37.227Z,98727.16
2019-04-29T20:12:11.432Z,98725.23
2019-04-29T20:14:33.745Z,98732.12
2019-04-29T20:17:09.547Z,98731.78
2019-04-29T20:19:30.695Z,98731.62
2019-04-29T20:22:00.523Z,98722.55
2019-04-29T20:24:26.378Z,98726.37
2019-04-29T20:26:52.932Z,98729.73
2019-04-29T20:29:19.808Z,98731.80
2019-04-29T20:31:52.009Z,98733.07
2019-04-29T20:34:20.119Z,98735.94
2019-04-29T20:36:43.380Z,98727.23
2019-04-29T20:39:15.320Z,98732.25
2019-04-29T20:41:41.330Z,98725.34
2019-04-29T20:44:09.189Z,98722.03
2019-04-29T20:46:45.348Z,98729.59
2019-04-29T20:49:05.696Z,98723.65
2019-04-29T20:51:47.880Z,98731.01
2019-04-29T20:54:04.478Z,98729.32
2019-04-29T20:56:35.010Z,98725.35
2019-04-29T20:59:02.085Z,98735.75
2019-04-29T21:01:31.498Z,98729.14
2019-04-29T21:03:58.021Z,98733.87
2019-04-29T21:06:24.235Z,98725.64
2019-04-29T21:08:51.230Z,98726.80
2019-04-29T21:11:21.174Z,98743.19
2019-04-29T21:13:56.007Z,98735.84
2019-04-29T21:16:29.168Z,98724.05
2019-04-29T21:18:54.264Z,98729.98
2019-04-29T21:21:20.856Z,98725.98
2019-04-29T21:23:48.247Z,98728.99
2019-04-29T21:26:15.861Z,98732.91
2019-04-29T21:28:44.629Z,98727.02
2019-04-29T21:31:11.687Z,98724.28
2019-04-29T21:33:38.548Z,98720.45
2019-04-29T21:36:19.219Z,98720.21
2019-04-29T21:39:00.935Z,98720.13
2019-04-29T21:41:27.387Z,98727.44
2019-04-29T21:43:54.700Z,98729.02
2019-04-29T21:46:27.816Z,98732.52
2019-04-29T21:48:49.109Z,98733.28
2019-04-29T21:51:17.256Z,98738.52
2019-04-29T21:53:43.449Z,98742.91
2019-04-29T21:56:09.736Z,98746.03
2019-04-29T21:58:36.521Z,98742.41
2019-04-29T22:01:04.907Z,98739.51
2019-04-29T22:03:31.377Z,98749.33
2019-04-29T22:06:00.186Z,98744.81
2019-04-29T22:08:29.796Z,98743.36
2019-04-29T22:10:59.674Z,98737.37
2019-04-29T22:13:22.216Z,98736.91
2019-04-29T22:15:48.369Z,98736.50
2019-04-29T22:18:17.420Z,98730.77
2019-04-29T22:20:43.424Z,98721.69
2019-04-29T22:23:13.234Z,98722.13
2019-04-29T22:25:41.011Z,98732.11
2019-04-29T22:28:06.264Z,98735.72
2019-04-29T22:30:32.549Z,98731.42
2019-04-29T22:32:59.948Z,98734.92
2019-04-29T22:35:27.724Z,98733.70
2019-04-29T22:37:55.505Z,98721.98
2019-04-29T22:40:22.033Z,98720.77
2019-04-29T22:43:04.821Z,98709.33
2019-04-29T22:45:25.002Z,98704.56
2019-04-29T22:47:54.367Z,98710.58
2019-04-29T22:50:19.230Z,98704.76
2019-04-29T22:52:45.438Z,98705.36
2019-04-29T22:55:11.896Z,98697.02
2019-04-29T22:57:38.052Z,98690.20
2019-04-29T23:00:07.267Z,98685.50
2019-04-29T23:02:33.433Z,98689.70
2019-04-29T23:04:59.595Z,98684.59
2019-04-29T23:07:25.894Z,98683.41
2019-04-29T23:09:52.074Z,98674.33
2019-04-29T23:12:18.757Z,98681.64
2019-04-29T23:14:45.745Z,98672.52
2019-04-29T23:17:13.355Z,98666.42
2019-04-29T23:19:40.576Z,98680.11
2019-04-29T23:22:21.947Z,98670.10
2019-04-29T23:24:51.300Z,98662.34
2019-04-29T23:27:19.608Z,98661.23
2019-04-29T23:29:46.089Z,98658.97
2019-04-29T23:32:12.348Z,98657.73
2019-04-29T23:34:38.565Z,98657.24
2019-04-29T23:37:04.736Z,98652.57
2019-04-29T23:39:30.995Z,98651.30
2019-04-29T23:41:57.211Z,98657.23
2019-04-29T23:44:23.383Z,98653.93
2019-04-29T23:46:49.561Z,98653.39
2019-04-29T23:49:15.743Z,98664.53
2019-04-29T23:51:41.923Z,98664.93
2019-04-29T23:54:08.248Z,98672.40
2019-04-29T23:56:42.831Z,98665.69
2019-04-29T23:59:18.261Z,98660.92
